Terminal Aerodrome Forecast
Issued by NWS Quad Cities IA IL

Home | Current Version | Previous Version | Text Only | Print | Product List | Glossary On
Versions: 1 2 3 4 5 6 7 8 9 10 11 12 13 14 15 16 17 18 19 20 21 22 23 24 25 26 27 28 29 30 31 32 33 34 35 36 37
000
FTUS43 KDVN 250500
TAFMLI
TAF
KMLI 250536Z 2506/2606 28011KT P6SM -SN OVC015
     FM251000 24011KT P6SM OVC008
     FM251700 19013KT P6SM SCT015 BKN250
     FM252200 16008KT P6SM BKN200=

USA.gov is the U.S. government's official web portal to all federal, state and local government web resources and services.